createdAt,value
2023-09-20T00:01:04.145Z,23.00
2023-09-20T00:03:31.527Z,23.00
2023-09-20T00:06:00.464Z,22.90
2023-09-20T00:08:27.321Z,24.00
2023-09-20T00:10:54.087Z,22.90
2023-09-20T00:13:20.840Z,22.90
2023-09-20T00:15:48.775Z,22.90
2023-09-20T00:18:15.605Z,22.90
2023-09-20T00:20:44.075Z,22.90
2023-09-20T00:23:10.799Z,22.90
2023-09-20T00:25:37.525Z,22.90
2023-09-20T00:28:04.438Z,22.90
2023-09-20T00:30:31.163Z,22.90
2023-09-20T00:32:57.896Z,22.90
2023-09-20T00:35:24.657Z,22.90
2023-09-20T00:37:51.341Z,22.90
2023-09-20T00:40:18.342Z,22.90
2023-09-20T00:42:46.820Z,22.90
2023-09-20T00:45:14.660Z,22.90
2023-09-20T00:47:44.300Z,22.90
2023-09-20T00:50:14.654Z,22.90
2023-09-20T00:52:42.918Z,22.90
2023-09-20T00:55:21.664Z,22.90
2023-09-20T00:57:52.305Z,22.90
2023-09-20T01:00:23.020Z,22.90
2023-09-20T01:02:52.368Z,22.90
2023-09-20T01:05:23.283Z,22.90
2023-09-20T01:07:51.766Z,22.90
2023-09-20T01:10:24.166Z,22.90
2023-09-20T01:12:59.609Z,22.90
2023-09-20T01:15:28.169Z,22.80
2023-09-20T01:17:57.916Z,22.90
2023-09-20T01:20:28.776Z,22.90
2023-09-20T01:22:57.658Z,22.90
2023-09-20T01:25:29.389Z,22.90
2023-09-20T01:28:00.716Z,22.90
2023-09-20T01:30:29.822Z,22.90
2023-09-20T01:32:58.854Z,22.90
2023-09-20T01:35:27.992Z,22.80
2023-09-20T01:37:56.715Z,22.80
2023-09-20T01:40:27.417Z,22.80
2023-09-20T01:42:54.794Z,22.90
2023-09-20T01:45:22.156Z,22.80
2023-09-20T01:47:51.135Z,22.90
2023-09-20T01:50:20.830Z,22.80
2023-09-20T01:52:53.001Z,22.90
2023-09-20T01:55:23.577Z,22.90
2023-09-20T01:57:58.050Z,22.80
2023-09-20T02:00:33.665Z,22.80
2023-09-20T02:03:01.532Z,22.80
2023-09-20T02:05:29.436Z,22.80
2023-09-20T02:07:58.886Z,22.80
2023-09-20T02:10:25.637Z,22.80
2023-09-20T02:12:57.194Z,22.80
2023-09-20T02:15:26.137Z,22.80
2023-09-20T02:17:53.779Z,22.80
2023-09-20T02:20:21.969Z,22.80
2023-09-20T02:22:49.472Z,22.80
2023-09-20T02:25:21.398Z,22.80
2023-09-20T02:27:49.564Z,22.80
2023-09-20T02:30:21.149Z,22.80
2023-09-20T02:32:52.328Z,22.80
2023-09-20T02:35:19.805Z,22.80
2023-09-20T02:37:47.584Z,22.70
2023-09-20T02:40:15.724Z,22.80
2023-09-20T02:42:46.223Z,22.80
2023-09-20T02:45:17.061Z,22.70
2023-09-20T02:47:44.809Z,22.80
2023-09-20T02:50:17.848Z,22.80
2023-09-20T02:52:46.332Z,22.80
2023-09-20T02:55:15.051Z,22.80
2023-09-20T02:57:45.097Z,22.70
2023-09-20T03:00:17.132Z,22.80
2023-09-20T03:02:46.850Z,22.80
2023-09-20T03:05:22.776Z,22.80
2023-09-20T03:07:51.237Z,22.80
2023-09-20T03:10:22.376Z,22.80
2023-09-20T03:12:53.890Z,22.70
2023-09-20T03:15:23.136Z,22.80
2023-09-20T03:17:57.696Z,22.80
2023-09-20T03:20:26.730Z,22.80
2023-09-20T03:22:55.682Z,22.80
2023-09-20T03:25:23.240Z,22.80
2023-09-20T03:27:51.078Z,22.80
2023-09-20T03:30:18.683Z,22.70
2023-09-20T03:32:45.880Z,22.80
2023-09-20T03:35:16.674Z,22.70
2023-09-20T03:37:45.006Z,22.70
2023-09-20T03:40:23.729Z,22.70
2023-09-20T03:42:53.337Z,22.70
2023-09-20T03:45:22.512Z,22.70
2023-09-20T03:47:54.476Z,22.40
2023-09-20T03:50:22.625Z,22.70
2023-09-20T03:52:50.097Z,22.80
2023-09-20T03:55:17.589Z,22.70
2023-09-20T03:57:44.363Z,22.70
2023-09-20T04:00:17.209Z,22.70
2023-09-20T04:02:45.615Z,22.70
2023-09-20T04:05:16.016Z,22.70
2023-09-20T04:07:45.593Z,22.70
2023-09-20T04:10:13.288Z,22.70
2023-09-20T04:12:39.992Z,22.70
2023-09-20T04:15:08.651Z,22.70
2023-09-20T04:17:39.747Z,22.70
2023-09-20T04:20:07.428Z,22.70
2023-09-20T04:22:35.662Z,22.70
2023-09-20T04:25:02.534Z,22.70
2023-09-20T04:27:29.389Z,22.70
2023-09-20T04:29:56.088Z,22.70
2023-09-20T04:32:23.018Z,22.90
2023-09-20T04:34:54.416Z,22.70
2023-09-20T04:37:21.631Z,22.70
2023-09-20T04:39:48.748Z,22.70
2023-09-20T04:42:15.426Z,22.70
2023-09-20T04:44:44.774Z,22.70
2023-09-20T04:47:11.557Z,22.70
2023-09-20T04:49:41.639Z,22.70
2023-09-20T04:52:11.893Z,22.70
2023-09-20T04:54:38.975Z,22.60
2023-09-20T04:57:05.938Z,22.60
2023-09-20T04:59:33.572Z,22.60
2023-09-20T05:02:01.041Z,22.60
2023-09-20T05:04:27.837Z,22.60
2023-09-20T05:06:54.552Z,22.60
2023-09-20T05:09:21.213Z,22.60
2023-09-20T05:11:47.960Z,22.60
2023-09-20T05:14:14.619Z,22.50
2023-09-20T05:16:41.263Z,22.50
2023-09-20T05:19:07.979Z,22.60
2023-09-20T05:21:34.619Z,22.50
2023-09-20T05:24:01.673Z,22.50
2023-09-20T05:26:29.241Z,22.50
2023-09-20T05:28:56.056Z,22.50
2023-09-20T05:31:24.352Z,22.50
2023-09-20T05:33:51.947Z,22.50
2023-09-20T05:36:22.139Z,22.50
2023-09-20T05:38:52.541Z,22.50
2023-09-20T05:41:19.315Z,22.50
2023-09-20T05:43:46.229Z,22.50
2023-09-20T05:46:17.488Z,22.60
2023-09-20T05:48:47.054Z,22.50
2023-09-20T05:51:16.207Z,22.50
2023-09-20T05:53:45.925Z,22.60
2023-09-20T05:56:13.153Z,22.60
2023-09-20T05:58:41.546Z,22.70
2023-09-20T06:01:11.150Z,22.80
2023-09-20T06:03:38.029Z,22.80
2023-09-20T06:06:05.650Z,22.80
2023-09-20T06:08:32.349Z,22.70
2023-09-20T06:10:59.357Z,22.80
2023-09-20T06:13:26.096Z,22.70
2023-09-20T06:15:52.796Z,22.80
2023-09-20T06:18:19.508Z,22.80
2023-09-20T06:20:46.984Z,22.80
2023-09-20T06:23:14.143Z,22.80
2023-09-20T06:25:43.874Z,22.80
2023-09-20T06:28:13.639Z,22.80
2023-09-20T06:30:42.595Z,22.70
2023-09-20T06:33:09.667Z,22.70
2023-09-20T06:35:44.485Z,22.70
2023-09-20T06:38:11.565Z,22.70
2023-09-20T06:40:41.345Z,22.60
2023-09-20T06:43:08.923Z,22.60
2023-09-20T06:45:36.627Z,22.60
2023-09-20T06:48:03.919Z,22.70
2023-09-20T06:50:31.733Z,22.80
2023-09-20T06:53:00.049Z,22.80
2023-09-20T06:55:26.783Z,22.80
2023-09-20T06:58:08.842Z,22.80
2023-09-20T07:00:40.466Z,22.80
2023-09-20T07:03:07.676Z,22.80
2023-09-20T07:05:34.724Z,22.80
2023-09-20T07:08:01.943Z,22.90
2023-09-20T07:10:30.160Z,22.90
2023-09-20T07:12:57.217Z,22.90
2023-09-20T07:15:28.858Z,22.90
2023-09-20T07:18:08.746Z,22.90
2023-09-20T07:20:37.884Z,22.80
2023-09-20T07:23:04.887Z,22.90
2023-09-20T07:25:32.358Z,22.90
2023-09-20T07:28:01.779Z,22.90
2023-09-20T07:30:33.133Z,22.90
2023-09-20T07:33:11.903Z,22.90
2023-09-20T07:35:41.130Z,22.90
2023-09-20T07:38:18.988Z,22.90
2023-09-20T07:40:49.349Z,22.90
2023-09-20T07:43:27.068Z,23.00
2023-09-20T07:45:55.913Z,22.90
2023-09-20T07:48:23.542Z,23.00
2023-09-20T07:50:51.149Z,23.00
2023-09-20T07:53:20.197Z,23.00
2023-09-20T07:55:58.995Z,22.90
2023-09-20T07:58:26.056Z,23.00
2023-09-20T08:00:52.911Z,23.00
2023-09-20T08:03:22.111Z,23.00
2023-09-20T08:05:54.435Z,23.00
2023-09-20T08:08:21.695Z,23.00
2023-09-20T08:11:02.536Z,23.00
2023-09-20T08:13:36.020Z,23.00
2023-09-20T08:16:04.014Z,23.00
2023-09-20T08:18:49.838Z,23.00
2023-09-20T08:21:16.541Z,23.00
2023-09-20T08:24:01.966Z,23.00
2023-09-20T08:26:47.340Z,23.10
2023-09-20T08:29:32.893Z,23.10
2023-09-20T08:32:17.992Z,23.10
2023-09-20T08:35:03.418Z,23.10
2023-09-20T08:37:49.395Z,23.10
2023-09-20T08:40:34.717Z,23.10
2023-09-20T08:43:20.329Z,23.10
2023-09-20T08:46:07.227Z,23.10
2023-09-20T08:48:55.290Z,23.20
2023-09-20T08:51:42.897Z,23.20
2023-09-20T08:54:28.424Z,23.20
2023-09-20T08:57:16.635Z,23.20
2023-09-20T08:59:55.051Z,23.20
2023-09-20T09:02:25.884Z,23.30
2023-09-20T09:04:55.611Z,23.20
2023-09-20T09:07:26.157Z,23.30
2023-09-20T09:09:53.686Z,23.20
2023-09-20T09:12:20.467Z,23.30
2023-09-20T09:14:49.279Z,23.30
2023-09-20T09:17:17.278Z,23.30
2023-09-20T09:19:44.243Z,23.30
2023-09-20T09:22:11.935Z,23.30
2023-09-20T09:24:49.306Z,23.20
2023-09-20T09:27:19.416Z,23.30
2023-09-20T09:29:48.103Z,23.30
2023-09-20T09:32:15.043Z,23.30
2023-09-20T09:34:44.673Z,23.30
2023-09-20T09:37:12.320Z,23.30
2023-09-20T09:39:41.611Z,23.30
2023-09-20T09:42:10.297Z,23.30
2023-09-20T09:44:56.020Z,23.30
2023-09-20T09:47:27.196Z,23.30
2023-09-20T09:49:54.474Z,23.40
2023-09-20T09:52:25.548Z,23.40
2023-09-20T09:54:53.880Z,23.40
2023-09-20T09:57:20.917Z,23.30
2023-09-20T09:59:52.118Z,23.40
2023-09-20T10:02:25.342Z,23.40
2023-09-20T10:05:00.053Z,23.40
2023-09-20T10:07:32.937Z,23.40
2023-09-20T10:10:13.821Z,23.40
2023-09-20T10:12:45.664Z,23.50
2023-09-20T10:15:15.622Z,23.40
2023-09-20T10:17:51.524Z,23.40
2023-09-20T10:20:19.857Z,23.40
2023-09-20T10:22:52.241Z,23.40
2023-09-20T10:25:35.362Z,23.40
2023-09-20T10:28:15.160Z,23.40
2023-09-20T10:30:57.815Z,23.40
2023-09-20T10:33:47.111Z,23.40
2023-09-20T10:36:19.819Z,23.40
2023-09-20T10:38:47.889Z,23.40
2023-09-20T10:41:16.366Z,23.40
2023-09-20T10:43:48.080Z,23.40
2023-09-20T10:46:19.555Z,23.40
2023-09-20T10:48:50.565Z,23.40
2023-09-20T10:51:50.343Z,23.50
2023-09-20T10:54:22.072Z,23.50
2023-09-20T10:56:52.271Z,23.50
2023-09-20T10:59:26.873Z,23.50
2023-09-20T11:01:57.358Z,23.50
2023-09-20T11:04:27.169Z,23.50
2023-09-20T11:06:55.617Z,23.50
2023-09-20T11:09:26.757Z,23.50
2023-09-20T11:11:53.469Z,23.50
2023-09-20T11:14:20.460Z,23.50
2023-09-20T11:16:48.550Z,23.60
2023-09-20T11:19:15.342Z,23.60
2023-09-20T11:21:42.866Z,23.60
2023-09-20T11:24:13.767Z,23.50
2023-09-20T11:26:41.415Z,23.60
2023-09-20T11:29:11.389Z,23.60
2023-09-20T11:31:39.361Z,23.60
2023-09-20T11:34:07.003Z,23.50
2023-09-20T11:36:41.530Z,23.60
2023-09-20T11:39:08.241Z,23.60
2023-09-20T11:41:36.427Z,23.60
2023-09-20T11:44:06.550Z,23.60
2023-09-20T11:46:37.237Z,23.60
2023-09-20T11:49:06.331Z,23.60
2023-09-20T11:51:36.018Z,23.60
2023-09-20T11:54:06.905Z,23.60
2023-09-20T11:56:35.828Z,23.60
2023-09-20T11:59:11.173Z,23.60
2023-09-20T12:01:42.459Z,23.60
2023-09-20T12:04:09.826Z,23.60
2023-09-20T12:06:36.898Z,23.60
2023-09-20T12:09:06.049Z,23.60
2023-09-20T12:11:33.374Z,23.70
2023-09-20T12:14:00.098Z,23.70
2023-09-20T12:16:26.826Z,23.70
2023-09-20T12:18:59.968Z,23.70
2023-09-20T12:21:27.055Z,23.70
2023-09-20T12:23:53.791Z,23.70
2023-09-20T12:26:20.532Z,23.70
2023-09-20T12:28:47.230Z,23.80
2023-09-20T12:31:14.428Z,23.80
2023-09-20T12:33:42.252Z,23.70
2023-09-20T12:36:12.471Z,23.70
2023-09-20T12:38:40.176Z,23.80
2023-09-20T12:41:09.841Z,23.80
2023-09-20T12:43:39.899Z,23.70
2023-09-20T12:46:08.020Z,23.80
2023-09-20T12:48:37.714Z,23.90
2023-09-20T12:51:08.956Z,23.90
2023-09-20T12:53:35.819Z,23.80
2023-09-20T12:56:05.523Z,23.80
2023-09-20T12:58:32.432Z,23.80
2023-09-20T13:00:59.168Z,23.80
2023-09-20T13:03:30.072Z,23.80
2023-09-20T13:05:57.547Z,23.80
2023-09-20T13:08:26.264Z,23.80
2023-09-20T13:10:55.251Z,23.80
2023-09-20T13:13:25.147Z,23.80
2023-09-20T13:15:53.500Z,23.80
2023-09-20T13:18:20.278Z,23.80
2023-09-20T13:20:47.236Z,23.80
2023-09-20T13:23:15.341Z,23.90
2023-09-20T13:25:45.460Z,23.80
2023-09-20T13:28:13.503Z,23.80
2023-09-20T13:30:42.118Z,23.80
2023-09-20T13:33:13.311Z,23.80
2023-09-20T13:35:41.093Z,23.70
2023-09-20T13:38:08.134Z,23.70
2023-09-20T13:40:34.911Z,23.70
2023-09-20T13:43:01.744Z,23.70
2023-09-20T13:45:28.564Z,23.70
2023-09-20T13:47:55.714Z,23.60
2023-09-20T13:50:23.250Z,23.60
2023-09-20T13:52:50.489Z,23.60
2023-09-20T13:55:26.144Z,23.60
2023-09-20T13:57:59.711Z,23.60
2023-09-20T14:00:28.925Z,23.60
2023-09-20T14:02:56.177Z,23.60
2023-09-20T14:05:24.271Z,23.70
2023-09-20T14:07:52.841Z,23.70
2023-09-20T14:10:21.227Z,23.60
2023-09-20T14:12:48.270Z,23.60
2023-09-20T14:15:20.528Z,23.60
2023-09-20T14:17:48.630Z,23.60
2023-09-20T14:20:19.920Z,23.60
2023-09-20T14:22:47.206Z,23.50
2023-09-20T14:25:13.878Z,23.60
2023-09-20T14:27:44.012Z,23.60
2023-09-20T14:30:12.068Z,23.60
2023-09-20T14:32:39.540Z,23.60
2023-09-20T14:35:09.931Z,23.60
2023-09-20T14:37:36.671Z,23.60
2023-09-20T14:40:04.559Z,23.60
2023-09-20T14:42:31.458Z,23.60
2023-09-20T14:44:58.202Z,23.60
2023-09-20T14:47:27.418Z,23.60
2023-09-20T14:49:55.464Z,23.60
2023-09-20T14:52:22.299Z,23.60
2023-09-20T14:54:50.388Z,23.70
2023-09-20T14:57:18.503Z,23.70
2023-09-20T14:59:46.367Z,23.80
2023-09-20T15:02:13.128Z,23.80
2023-09-20T15:04:39.786Z,23.80
2023-09-20T15:07:06.500Z,23.80
2023-09-20T15:09:34.023Z,23.80
2023-09-20T15:12:00.699Z,23.80
2023-09-20T15:14:27.715Z,23.80
2023-09-20T15:16:54.555Z,23.80
2023-09-20T15:19:21.227Z,23.70
2023-09-20T15:21:47.868Z,23.80
2023-09-20T15:24:15.345Z,23.80
2023-09-20T15:26:42.146Z,23.80
2023-09-20T15:29:09.925Z,23.80
2023-09-20T15:31:36.597Z,23.70
2023-09-20T15:34:04.757Z,23.80
2023-09-20T15:36:31.559Z,23.80
2023-09-20T15:38:58.278Z,23.70
2023-09-20T15:41:26.653Z,23.60
2023-09-20T15:43:53.501Z,23.60
2023-09-20T15:46:20.327Z,23.60
2023-09-20T15:48:47.839Z,23.50
2023-09-20T15:51:14.681Z,23.50
2023-09-20T15:53:41.731Z,23.50
2023-09-20T15:56:08.957Z,23.50
2023-09-20T15:58:36.049Z,23.40
2023-09-20T16:01:02.952Z,23.40
2023-09-20T16:03:33.192Z,23.40
2023-09-20T16:06:00.314Z,23.50
2023-09-20T16:08:29.118Z,23.50
2023-09-20T16:10:55.952Z,23.50
2023-09-20T16:13:23.972Z,23.50
2023-09-20T16:15:51.993Z,23.50
2023-09-20T16:18:19.572Z,23.40
2023-09-20T16:20:46.798Z,23.40
2023-09-20T16:23:17.475Z,23.40
2023-09-20T16:25:44.169Z,23.40
2023-09-20T16:28:12.533Z,23.40
2023-09-20T16:30:39.266Z,23.40
2023-09-20T16:33:09.185Z,23.40
2023-09-20T16:35:36.103Z,23.40
2023-09-20T16:38:02.861Z,23.40
2023-09-20T16:40:32.015Z,23.40
2023-09-20T16:42:59.577Z,23.30
2023-09-20T16:45:26.268Z,23.30
2023-09-20T16:47:53.116Z,23.30
2023-09-20T16:50:19.918Z,23.30
2023-09-20T16:52:47.747Z,23.30
2023-09-20T16:55:14.524Z,23.20
2023-09-20T16:57:41.422Z,23.20
2023-09-20T17:00:13.322Z,23.10
2023-09-20T17:02:40.739Z,23.10
2023-09-20T17:05:09.615Z,23.10
2023-09-20T17:07:39.216Z,23.10
2023-09-20T17:10:06.836Z,23.00
2023-09-20T17:12:33.659Z,23.10
2023-09-20T17:15:00.388Z,23.00
2023-09-20T17:17:27.203Z,23.00
2023-09-20T17:19:55.257Z,23.00
2023-09-20T17:22:22.865Z,23.00
2023-09-20T17:24:49.906Z,23.00
2023-09-20T17:27:29.071Z,23.00
2023-09-20T17:29:56.467Z,23.00
2023-09-20T17:32:23.964Z,22.50
2023-09-20T17:34:53.397Z,22.90
2023-09-20T17:37:20.480Z,22.90
2023-09-20T17:39:47.104Z,22.90
2023-09-20T17:42:15.713Z,23.00
2023-09-20T17:44:42.523Z,23.10
2023-09-20T17:47:09.166Z,23.10
2023-09-20T17:49:36.442Z,23.20
2023-09-20T17:52:09.054Z,23.20
2023-09-20T17:54:35.702Z,23.20
2023-09-20T17:57:03.034Z,23.20
2023-09-20T17:59:29.905Z,23.20
2023-09-20T18:01:58.497Z,23.20
2023-09-20T18:04:25.291Z,23.20
2023-09-20T18:06:52.156Z,23.20
2023-09-20T18:09:18.812Z,23.20
2023-09-20T18:11:47.049Z,23.20
2023-09-20T18:14:13.839Z,23.30
2023-09-20T18:16:45.177Z,23.20
2023-09-20T18:19:12.934Z,23.30
2023-09-20T18:21:40.208Z,23.30
2023-09-20T18:24:07.430Z,23.30
2023-09-20T18:26:37.050Z,23.30
2023-09-20T18:29:04.027Z,23.30
2023-09-20T18:31:34.557Z,23.20
2023-09-20T18:34:02.015Z,23.30
2023-09-20T18:36:30.731Z,23.20
2023-09-20T18:38:58.177Z,23.30
2023-09-20T18:41:25.075Z,23.30
2023-09-20T18:43:51.971Z,23.20
2023-09-20T18:46:18.803Z,23.20
2023-09-20T18:48:47.390Z,23.20
2023-09-20T18:51:16.540Z,23.20
2023-09-20T18:53:43.823Z,23.20
2023-09-20T18:56:11.822Z,23.20
2023-09-20T18:58:38.532Z,23.20
2023-09-20T19:01:12.124Z,23.20
2023-09-20T19:03:38.844Z,23.20
2023-09-20T19:06:06.540Z,23.20
2023-09-20T19:08:33.355Z,23.20
2023-09-20T19:11:03.532Z,23.20
2023-09-20T19:13:30.383Z,23.20
2023-09-20T19:15:57.192Z,23.20
2023-09-20T19:18:25.123Z,23.20
2023-09-20T19:20:52.076Z,23.20
2023-09-20T19:23:18.853Z,23.20
2023-09-20T19:25:47.404Z,23.20
2023-09-20T19:28:14.530Z,23.20
2023-09-20T19:30:41.978Z,23.20
2023-09-20T19:33:08.678Z,23.20
2023-09-20T19:35:38.393Z,23.20
2023-09-20T19:38:05.758Z,23.20
2023-09-20T19:40:32.761Z,23.20
2023-09-20T19:42:59.492Z,23.20
2023-09-20T19:45:27.725Z,23.20
2023-09-20T19:47:55.948Z,23.20
2023-09-20T19:50:23.236Z,23.20
2023-09-20T19:52:50.391Z,23.20
2023-09-20T19:55:28.350Z,23.20
2023-09-20T19:57:56.629Z,23.20
2023-09-20T20:00:25.674Z,23.20
2023-09-20T20:02:54.026Z,23.20
2023-09-20T20:05:25.178Z,23.20
2023-09-20T20:07:53.366Z,23.20
2023-09-20T20:10:20.251Z,23.20
2023-09-20T20:12:47.234Z,23.10
2023-09-20T20:15:14.899Z,23.10
2023-09-20T20:17:44.747Z,23.20
2023-09-20T20:20:21.059Z,23.10
2023-09-20T20:22:54.117Z,23.10
2023-09-20T20:25:28.540Z,23.10
2023-09-20T20:28:00.066Z,23.10
2023-09-20T20:30:31.329Z,23.10
2023-09-20T20:32:58.812Z,23.10
2023-09-20T20:35:27.235Z,23.10
2023-09-20T20:37:55.321Z,23.10
2023-09-20T20:40:24.127Z,23.10
2023-09-20T20:42:52.464Z,23.10
2023-09-20T20:45:20.322Z,23.10
2023-09-20T20:47:48.636Z,23.10
2023-09-20T20:50:32.195Z,23.10
2023-09-20T20:53:02.066Z,23.10
2023-09-20T20:55:29.721Z,23.10
2023-09-20T20:58:01.244Z,23.10
2023-09-20T21:00:30.616Z,23.10
2023-09-20T21:03:10.711Z,23.10
2023-09-20T21:05:38.098Z,23.00
2023-09-20T21:08:05.480Z,23.10
2023-09-20T21:10:32.600Z,23.10
2023-09-20T21:12:59.267Z,23.10
2023-09-20T21:15:27.107Z,23.10
2023-09-20T21:17:57.135Z,23.00
2023-09-20T21:20:28.171Z,23.00
2023-09-20T21:22:56.050Z,23.00
2023-09-20T21:25:30.977Z,23.00
2023-09-20T21:27:59.250Z,23.00
2023-09-20T21:30:32.353Z,23.00
2023-09-20T21:33:01.403Z,23.00
2023-09-20T21:35:29.632Z,23.00
2023-09-20T21:37:56.859Z,23.00
2023-09-20T21:40:33.587Z,23.00
2023-09-20T21:43:02.001Z,23.00
2023-09-20T21:45:31.476Z,23.00
2023-09-20T21:47:58.793Z,23.00
2023-09-20T21:50:27.086Z,23.00
2023-09-20T21:52:55.215Z,23.00
2023-09-20T21:55:23.104Z,23.00
2023-09-20T21:57:51.633Z,23.00
2023-09-20T22:00:21.568Z,23.00
2023-09-20T22:02:52.431Z,23.00
2023-09-20T22:05:23.947Z,23.00
2023-09-20T22:08:03.362Z,23.00
2023-09-20T22:10:38.854Z,23.00
2023-09-20T22:13:08.080Z,23.00
2023-09-20T22:15:35.735Z,23.00
2023-09-20T22:18:21.772Z,23.00
2023-09-20T22:20:53.658Z,23.00
2023-09-20T22:23:21.209Z,23.00
2023-09-20T22:25:49.566Z,23.00
2023-09-20T22:28:18.831Z,22.90
2023-09-20T22:30:45.772Z,23.00
2023-09-20T22:33:13.620Z,23.00
2023-09-20T22:35:42.280Z,23.00
2023-09-20T22:38:10.414Z,23.00
2023-09-20T22:40:37.311Z,22.90
2023-09-20T22:43:05.396Z,22.90
2023-09-20T22:45:35.635Z,22.90
2023-09-20T22:48:13.769Z,22.90
2023-09-20T22:50:43.045Z,22.90
2023-09-20T22:53:10.673Z,22.90
2023-09-20T22:55:41.827Z,22.90
2023-09-20T22:58:15.585Z,22.90
2023-09-20T23:00:47.117Z,22.90
2023-09-20T23:03:18.062Z,22.90
2023-09-20T23:05:48.496Z,22.90
2023-09-20T23:08:19.253Z,22.90
2023-09-20T23:10:46.564Z,22.90
2023-09-20T23:13:20.154Z,22.90
2023-09-20T23:15:52.983Z,22.90
2023-09-20T23:18:25.590Z,22.90
2023-09-20T23:20:53.661Z,22.90
2023-09-20T23:23:20.978Z,22.90
2023-09-20T23:25:50.809Z,22.90
2023-09-20T23:28:18.020Z,22.90
2023-09-20T23:30:46.657Z,22.90
2023-09-20T23:33:22.643Z,22.90
2023-09-20T23:35:54.578Z,22.90
2023-09-20T23:38:22.936Z,22.90
2023-09-20T23:40:52.117Z,22.90
2023-09-20T23:43:20.364Z,22.90
2023-09-20T23:45:47.777Z,22.90
2023-09-20T23:48:18.394Z,22.90
2023-09-20T23:50:46.546Z,22.90
2023-09-20T23:53:13.911Z,22.90
2023-09-20T23:55:43.567Z,22.90
2023-09-20T23:58:11.032Z,22.90
